WETTERDATEN

GESTERN
Time Temp. Taup. r.Fe. Windrich Windstärke Windböe Druck 1h Prec. 24h Prec.
00:07 15.9 12.5 80 218 0.3 1.1 1013.2
00:18 15.9 12.5 80 217 0.3 1.1 1013.2
00:27 15.8 12.4 80 221 0.3 1.1 1013.2
00:37 15.8 12.4 80 225 0.3 1.1 1013.1
00:48 15.8 12.4 80 221 0.3 1.1 1013.2
00:58 15.7 12.3 80 221 0.3 1.1 1013.2
01:08 15.6 12.4 81 221 0.3 0.8 1013.2
01:17 15.5 12.3 81 228 0.3 1.1 1013.1
01:28 15.3 12.1 81 228 0.8 1.1 1013.1
01:38 15.2 12 81 231 0.3 1.1 1013.1
01:48 15.1 12.1 82 225 0.3 1.1 1013.2
01:58 15.1 12.1 82 228 0.3 1.1 1013.2
02:08 15.1 12.2 83 225 0.3 1.1 1013.1
02:18 15.1 12.2 83 225 0.3 1.1 1013
02:28 15.2 12.3 83 225 0.3 1.1 1013.1
02:39 15.2 12.3 83 225 0.3 1.1 1013
02:49 15.2 12.3 83 225 0.3 1.1 1013.1
02:59 15.1 12.2 83 225 0.3 1.1 1012.9
03:09 15.1 12.2 83 225 0.3 1.1 1013
03:19 15 12.1 83 225 0.8 1.4 1013
03:29 15 12.3 84 225 0.8 1.1 1013
03:39 14.9 12.2 84 228 0.3 1.1 1013
03:50 14.8 12.1 84 228 0.3 1.1 1012.9
03:59 14.7 11.8 83 225 0.3 1.1 1013
04:09 14.5 11.7 83 221 0.3 1.1 1013
04:19 14.4 11.6 83 222 0.8 1.1 1013.1
04:30 14.2 11.5 84 210 0.3 1.1 1013
04:40 14 11.3 84 198 0.3 0.8 1013.1
04:48 13.9 11.2 84 174 0.3 0.8 1013
05:00 13.7 10.9 83 164 0.3 0.8 1013
05:10 13.5 10.9 84 0 0.8 1013.1
05:20 13.4 10.8 84 0 0.8 1013.1
05:30 13.3 10.7 84 0 0.8 1013
05:40 13.2 10.6 84 186 0.3 0.8 1013
05:50 13.1 10.5 84 0 0.8 1013
06:00 13 10.4 84 0 0.3 1013
06:10 12.9 10.3 84 0 0.8 1013.1
06:21 12.8 10.2 84 164 0.3 0.8 1013.1
06:30 12.8 10.3 85 0 0.8 1013.1
06:40 12.9 10.4 85 0 0.3 1013.1
06:51 14.6 12.6 88 0 0.3 1013.2
07:01 16.4 13.9 85 0 0.3 1013.2
07:11 17.9 14.2 79 0 0.8 1013.1
07:21 19.4 14.7 74 167 0.3 0.8 1013
07:40 21.9 15.5 67 135 0.3 0.8 1013.2 0.0000 0.0000
07:50 23 16.1 65 135 0.3 0.8 1013.1 0.0000 0.0000
08:00 24.1 16.6 63 180 0.3 0.8 1013.1 0.0000 0.0000
08:10 25.1 16.5 59 209 0.3 0.8 1013.2 0.0000 0.0000
08:20 25.2 16.4 58 0 0.8 1013.1
08:31 25.1 16.3 58 0 1.1 1013.1
08:41 24.6 16.1 59 0 1.1 1013.2
08:50 24.5 16 59 135 0.3 1.1 1013
09:00 24.1 15.6 59 0 0.8 1013.1
09:02 24 15.8 60 0 0.8 1013 0.0000 0.0000
09:12 23.5 15.6 61 135 0.3 0.8 1013.1 0.0000 0.0000
09:22 23.5 15.6 61 135 0.3 1.1 1013.1 0.0000 0.0000
09:32 23.6 15.9 62 0 0.8 1013.2 0.0000 0.0000
09:42 23.5 15.6 61 135 0.3 0.8 1013.1 0.0000 0.0000
09:53 23.5 15.6 61 49 0.3 1.1 1013.1 0.0000 0.0000
10:02 23.7 15.5 60 90 0.3 1.1 1013 0.0000 0.0000
10:12 23.8 15.3 59 90 0.3 0.8 1013 0.0000 0.0000
10:22 23.9 15.1 58 90 0.3 1.1 1013.1 0.0000 0.0000
10:33 23.9 14.9 57 161 0.3 0.8 1012.8 0.0000 0.0000
10:43 24.2 15.2 57 135 0.3 1.1 1012.9 0.0000 0.0000
10:52 24.2 14.9 56 135 0.3 1.4 1012.8 0.0000 0.0000
11:03 24.4 15.1 56 135 0.3 1.1 1012.8 0.0000 0.0000
11:13 24.7 14.8 54 90 0.3 1.1 1012.7 0.0000 0.0000
11:23 24.7 14.8 54 135 0.3 1.4 1012.7 0.0000 0.0000
11:33 24.4 14.2 53 135 0.3 1.1 1012.7 0.0000 0.0000
11:43 24.3 14.4 54 159 0.3 1.4 1012.7 0.0000 0.0000
11:53 23.9 13.7 53 0 0.3 1.4 1012.5 0.0000 0.0000
12:03 24.6 15.2 56 135 0.3 1.1 1012.5 0.0000 0.0000
12:14 25 14.5 52 0 0.3 1.4 1012.5 0.0000 0.0000
12:24 24.9 15 54 168 0.3 1.1 1012.6 0.0000 0.0000
12:33 24.7 14.5 53 315 0.3 1.4 1012.6 0.0000 0.0000
12:43 25.2 14.9 53 198 0.3 1.1 1012.6 0.0000 0.0000
12:54 25.4 15.1 53 173 0.3 1.1 1012.5 0.0000 0.0000
13:04 25.3 14.7 52 165 0.3 1.1 1012.4 0.0000 0.0000
13:14 25.1 14.3 51 153 0.3 1.1 1012.4 0.0000 0.0000
13:24 25.1 14.9 53 188 0.3 0.8 1012.4 0.0000 0.0000
13:34 25.1 14.6 52 315 0.3 1.7 1012.3 0.0000 0.0000
13:44 24.6 14.4 53 45 0.3 1.1 1012.3 0.0000 0.0000
13:54 24.5 14 52 198 0.3 0.8 1012.2 0.0000 0.0000
14:05 24.5 13.7 51 0 0.8 1012.3 0.0000 0.0000
14:14 24.3 13.8 52 135 0.3 1.1 1012.1 0.0000 0.0000
14:24 23.8 13.7 53 198 0.3 1.1 1012.1 0.0000 0.0000
14:35 24.3 14.1 53 144 0.3 0.8 1012 0.0000 0.0000
14:45 24.6 14.4 53 156 0.3 1.1 1011.9 0.0000 0.0000
14:55 24.7 13.9 51 90 0.3 0.8 1011.9 0.0000 0.0000
15:05 24.4 13.9 52 165 0.3 1.4 1011.9 0.0000 0.0000
15:15 24.2 14 53 315 0.3 1.7 1011.8 0.0000 0.0000
15:25 24 14.4 55 90 0.3 1.1 1011.7 0.0000 0.0000
15:35 23.7 14.1 55 171 0.3 0.8 1011.8 0.0000 0.0000
15:45 23.7 14.7 57 90 0.3 1.1 1011.8 0.0000 0.0000
15:55 23.7 14.1 55 33 0.3 1.4 1011.7 0.0000 0.0000
16:05 23.9 14 54 135 0.3 2.2 1011.6 0.0000 0.0000
16:15 23.8 13.9 54 180 0.3 1.1 1011.6 0.0000 0.0000
16:26 24 14.1 54 171 0.3 0.8 1011.6 0.0000 0.0000
16:36 23.7 13.8 54 11 0.3 2.5 1011.7 0.0000 0.0000
16:45 23.5 13.9 55 45 0.3 2.5 1011.7 0.0000 0.0000
16:55 23.3 13.8 55 180 0.3 1.4 1011.6 0.0000 0.0000
17:06 23 14 57 191 0.3 1.1 1011.5 0.0000 0.0000
17:16 22.9 13.9 57 188 0.3 0.8 1011.7 0.0000 0.0000
17:26 22.6 14.4 60 270 0.3 2.5 1011.7 0.0000 0.0000
17:37 22.3 14.7 62 0.3 1.4 1011.6 0.0000 0.0000
17:46 22.3 14.4 61 270 0.3 1.7 1011.6 0.0000 0.0000
17:56 22.1 14.2 61 270 0.3 2.2 1011.6 0.0000 0.0000
18:06 21.9 13.8 60 270 0.3 1.4 1011.5 0.0000 0.0000
18:17 21.7 13.6 60 270 0.3 2.8 1011.6 0.0000 0.0000
18:27 21.6 13.8 61 0.3 1.4 1011.4 0.0000 0.0000
18:36 21.4 13.8 62 45 0.3 1.4 1011.5 0.0000 0.0000
18:47 21.3 14 63 0.3 1.1 1011.7 0.0000 0.0000
18:57 21 13.9 64 90 0.3 1.7 1011.6 0.0000 0.0000
19:07 20.7 13.7 64 90 0.3 1.7 1011.5 0.0000 0.0000
19:17 20.7 13.9 65 90 0.3 0.8 1011.8 0.0000 0.0000
19:27 20.5 13.7 65 14 0.3 1.4 1011.8 0.0000 0.0000
19:37 20.3 13.5 65 45 0.3 1.4 1011.8 0.0000 0.0000
19:47 20.2 13.7 66 315 0.3 1.7 1011.8 0.0000 0.0000
19:57 20 13.7 67 239 0.3 1.1 1011.9 0.0000 0.0000
20:08 19.8 13.5 67 270 0.3 1.1 1012 0.0000 0.0000
20:17 19.7 13.6 68 239 0.3 0.8 1012 0.0000 0.0000
20:27 19.6 13.5 68 315 0.3 1.1 1012 0.0000 0.0000
20:38 19.4 13.6 69 180 0.3 1.1 1012 0.0000 0.0000
20:48 19.2 13.4 69 0.3 2.2 1012 0.0000 0.0000
20:58 19 13.2 69 206 0.3 1.7 1012.1 0.0000 0.0000
21:08 18.9 13.3 70 302 0.3 1.1 1012.2 0.0000 0.0000
21:18 18.8 13.2 70 307 0.3 1.4 1012.3 0.0000 0.0000
21:28 18.7 13.1 70 315 0.3 1.1 1012.4 0.0000 0.0000
21:38 18.6 13.2 71 315 0.3 1.1 1012.5 0.0000 0.0000
21:49 18.5 13.1 71 309 0.3 1.1 1012.6 0.0000 0.0000
21:59 18.5 13.1 71 315 0.3 1.1 1012.7 0.0000 0.0000
22:08 18.3 13 71 320 0.3 1.7 1012.7 0.0000 0.0000
22:18 18.1 12.8 71 305 0.3 1.1 1012.8 0.0000 0.0000
22:29 18 12.9 72 304 0.3 1.4 1012.7 0.0000 0.0000
22:39 17.9 12.8 72 270 0.3 1.7 1012.7 0.0000 0.0000
22:49 17.8 12.9 73 270 0.3 1.1 1012.7 0.0000 0.0000
22:59 17.8 12.7 72 270 0.3 1.1 1012.8 0.0000 0.0000
23:09 17.9 13 73 270 0.3 0.8 1012.9 0.0000 0.0000
23:19 17.8 12.9 73 270 0.3 0.8 1012.9 0.0000 0.0000
23:29 17.7 12.6 72 270 0.3 0.8 1013 0.0000 0.0000
23:40 17.5 12.6 73 315 0.3 1.1 1012.9 0.0000 0.0000
23:49 17.4 12.5 73 270 0.3 1.1 1013 0.0000 0.0000

TAGESSTATISTIK

2021-08-03
TEMPERATUR
MITTEL
20.0
MAXIMUM
25.4
12:54
MINIMUM
12.8
06:21
LUFTDRUCK
MITTEL
1012.6
MAXIMUM
1013.2
00:07
MINIMUM
1011.4
18:27
TAUPUNKT
MITTEL
13.5
MAXIMUM
16.6
08:00
MINIMUM
10.2
06:21
FEUCHTIGKEIT
MITTEL
67
MAXIMUM
88
06:51
MINIMUM
51
13:14
WINDSTÄRKE
MITTEL
0.3
MAXIMUM
0.8
01:28
WINDBÖE
MITTEL
1.1
MAXIMUM
2.8
18:17
WINDRICHTUNG
VORHERRSCHENDE
SW
21.8%
N
2.8
NO
4.2
O
7.0
SO
12.0
S
16.9
SW
21.8
W
9.2
NW
10.6
NIEDERSCHLAG
REGEN STUNDE
0.0
REGEN TAG
0.0
TEMPERATUR (°C)
MINIMUM
12.8
MAXIMUM
25.4
MITTEL
20.0
LUFTDRUCK (hpa)
MINIMUM
1011.4
MAXIMUM
1013.2
MITTEL
1012.6
MESSGERÄT